Briefing drone pour Portes-les-valence

Rechercher une autre localisation

Conditions de vol :


Nous sommes le : Vendredi 07 mai 2021
Il est 01:30 UTC (03:30 LT)

Lever de soleil : 03:54 UTC (05:54 LT)
Coucher de soleil : 19:19 UTC (21:19 LT)

Météo

L'essentiel des conditions de vol

VIGILANCE MÉTÉO FRANCE - Drôme (26)
Pas de vigilances particulieres
CARTE TEMSI
CARTES DES FRONTS
METAR de LFLU
LFLU 061800Z AUTO 17010KT 9999 BKN062 OVC074 18/10 Q1012

Date d'émission: 06/05/2021
Heure d'émission: 18:00 UTC
Vent: 170° pour 10 KT (19 km/h)
Visibilité horizontale: > 10 km
Plafond :
- Nuages morcelés à 6200ft (1890m)
- Couvert à 7400ft (2256m)
Température: 18 °C
Point de rosée: 10 °C
Humidité: 60%
Pression (QNH): 1012 hPa
Prévision 24h pour Valence (5 km)
Vent : 7° pour 2 KT (9 km/h)
Temperature Maxi: 9 °C
Temperature Min: 9 °C
Humidité : 82%
Condition : Couvert



Warning: count(): Parameter must be an array or an object that implements Countable in /homepages/6/d509196549/htdocs/droneoxygene/briefing.php on line 743
WEBCAM POUR PORTES-LES-VALENCE

Réglementation

Voler en sécurité

CARTES AERONAUTIQUE 1/500.000
CARTES VAC (LFLU)
SUP AIP




Chargement des AIP...
NOTAM (PORTES-LES-VALENCE + Terrain à proximité / FIR )




Chargement des NOTAMS...
CONTACT PREFECTURE 26
Drôme (26) : ddt-sdsr@drome.gouv.fr


Avertissement : Les données mises à disposition sont indicatives. Oxygène Drone ne pourra être tenu responsable de dégâts causés aux biens et aux personnes.